createdAt,value
2019-05-15T00:01:41.001Z,4.53
2019-05-15T00:04:10.286Z,4.53
2019-05-15T00:06:39.780Z,4.97
2019-05-15T00:09:09.526Z,4.92
2019-05-15T00:11:39.169Z,4.95
2019-05-15T00:14:08.849Z,4.95
2019-05-15T00:16:38.775Z,5.03
2019-05-15T00:19:08.786Z,4.97
2019-05-15T00:21:38.506Z,4.97
2019-05-15T00:24:12.956Z,5.35
2019-05-15T00:26:39.309Z,4.90
2019-05-15T00:29:15.644Z,5.78
2019-05-15T00:31:40.045Z,5.40
2019-05-15T00:34:12.839Z,5.72
2019-05-15T00:36:40.700Z,5.28
2019-05-15T00:39:10.229Z,5.75
2019-05-15T00:41:50.895Z,5.90
2019-05-15T00:44:10.935Z,5.80
2019-05-15T00:46:40.365Z,5.47
2019-05-15T00:49:09.819Z,5.40
2019-05-15T00:51:39.266Z,6.03
2019-05-15T00:54:11.349Z,5.37
2019-05-15T00:56:40.784Z,6.25
2019-05-15T00:59:23.108Z,5.47
2019-05-15T01:01:41.482Z,5.60
2019-05-15T01:04:10.945Z,5.08
2019-05-15T01:06:40.376Z,5.15
2019-05-15T01:09:09.806Z,5.45
2019-05-15T01:11:39.337Z,5.65
2019-05-15T01:14:12.191Z,5.45
2019-05-15T01:16:39.944Z,5.25
2019-05-15T01:19:09.400Z,4.95
2019-05-15T01:21:38.851Z,5.90
2019-05-15T01:24:08.528Z,5.50
2019-05-15T01:26:38.558Z,5.50
2019-05-15T01:29:09.101Z,5.33
2019-05-15T01:31:38.547Z,5.17
2019-05-15T01:34:09.044Z,5.60
2019-05-15T01:36:38.604Z,5.00
2019-05-15T01:39:08.482Z,5.35
2019-05-15T01:41:38.634Z,5.37
2019-05-15T01:44:08.861Z,4.67
2019-05-15T01:46:39.290Z,4.70
2019-05-15T01:49:09.044Z,4.92
2019-05-15T01:51:38.672Z,5.05
2019-05-15T01:54:09.173Z,4.85
2019-05-15T01:56:38.883Z,4.40
2019-05-15T01:59:08.765Z,4.75
2019-05-15T02:01:39.149Z,4.78
2019-05-15T02:04:09.338Z,4.70
2019-05-15T02:06:39.222Z,4.20
2019-05-15T02:09:09.266Z,4.30
2019-05-15T02:11:38.765Z,4.53
2019-05-15T02:14:08.445Z,4.40
2019-05-15T02:16:39.399Z,4.55
2019-05-15T02:19:09.108Z,4.28
2019-05-15T02:21:38.529Z,4.78
2019-05-15T02:24:08.094Z,4.87
2019-05-15T02:26:38.890Z,4.10
2019-05-15T02:29:13.154Z,4.60
2019-05-15T02:31:39.697Z,4.33
2019-05-15T02:34:10.091Z,4.10
2019-05-15T02:36:40.391Z,4.47
2019-05-15T02:39:10.421Z,4.53
2019-05-15T02:41:40.075Z,4.25
2019-05-15T02:44:10.950Z,5.17
2019-05-15T02:46:40.626Z,4.62
2019-05-15T02:49:10.061Z,4.55
2019-05-15T02:51:40.083Z,4.85
2019-05-15T02:54:10.442Z,4.35
2019-05-15T02:56:40.311Z,4.87
2019-05-15T02:59:09.727Z,4.58
2019-05-15T03:01:40.371Z,4.55
2019-05-15T03:04:10.367Z,4.17
2019-05-15T03:06:39.869Z,4.90
2019-05-15T03:09:09.755Z,4.33
2019-05-15T03:11:40.972Z,4.75
2019-05-15T03:14:10.617Z,3.85
2019-05-15T03:16:40.046Z,4.00
2019-05-15T03:19:10.085Z,4.35
2019-05-15T03:21:39.858Z,4.15
2019-05-15T03:24:10.199Z,4.40
2019-05-15T03:26:39.876Z,3.90
2019-05-15T03:29:09.958Z,4.03
2019-05-15T03:31:56.634Z,4.28
2019-05-15T03:34:20.497Z,4.45
2019-05-15T03:36:44.931Z,4.10
2019-05-15T03:39:13.145Z,3.95
2019-05-15T03:41:42.592Z,3.98
2019-05-15T03:44:12.025Z,5.08
2019-05-15T03:46:41.478Z,3.92
2019-05-15T03:49:10.953Z,4.42
2019-05-15T03:51:45.427Z,4.60
2019-05-15T03:54:11.620Z,4.78
2019-05-15T03:56:41.054Z,4.72
2019-05-15T03:59:10.469Z,4.85
2019-05-15T04:01:43.913Z,4.70
2019-05-15T04:04:11.161Z,4.40
2019-05-15T04:06:40.605Z,3.92
2019-05-15T04:09:10.057Z,4.10
2019-05-15T04:11:39.490Z,4.50
2019-05-15T04:14:10.175Z,4.70
2019-05-15T04:16:39.945Z,4.65
2019-05-15T04:19:09.957Z,4.67
2019-05-15T04:21:44.534Z,4.60
2019-05-15T04:24:10.797Z,4.90
2019-05-15T04:26:41.387Z,4.60
2019-05-15T04:29:10.848Z,4.55
2019-05-15T04:31:51.719Z,4.70
2019-05-15T04:34:11.461Z,4.72
2019-05-15T04:36:44.479Z,4.30
2019-05-15T04:39:12.091Z,4.53
2019-05-15T04:41:41.540Z,4.45
2019-05-15T04:44:10.978Z,4.72
2019-05-15T04:46:40.432Z,4.62
2019-05-15T04:49:09.883Z,5.00
2019-05-15T04:51:39.388Z,5.17
2019-05-15T04:54:09.703Z,5.10
2019-05-15T04:56:40.152Z,4.72
2019-05-15T04:59:10.393Z,4.92
2019-05-15T05:01:40.483Z,5.05
2019-05-15T05:04:10.189Z,5.08
2019-05-15T05:06:39.894Z,4.40
2019-05-15T05:09:09.503Z,4.90
2019-05-15T05:11:39.198Z,4.95
2019-05-15T05:14:08.778Z,4.85
2019-05-15T05:16:39.343Z,4.72
2019-05-15T05:19:09.171Z,5.40
2019-05-15T05:21:38.729Z,5.45
2019-05-15T05:24:08.236Z,5.75
2019-05-15T05:26:38.362Z,5.70
2019-05-15T05:29:08.583Z,5.60
2019-05-15T05:31:39.092Z,5.42
2019-05-15T05:34:08.950Z,4.08
2019-05-15T05:36:38.741Z,3.35
2019-05-15T05:39:12.876Z,4.05
2019-05-15T05:41:40.336Z,3.95
2019-05-15T05:44:09.790Z,3.55
2019-05-15T05:46:39.911Z,3.90
2019-05-15T05:49:09.375Z,3.47
2019-05-15T05:51:38.877Z,3.62
2019-05-15T05:54:08.495Z,3.50
2019-05-15T05:56:38.063Z,3.30
2019-05-15T05:59:09.423Z,3.17
2019-05-15T06:01:43.710Z,3.95
2019-05-15T06:04:09.875Z,4.42
2019-05-15T06:06:39.335Z,3.42
2019-05-15T06:09:09.371Z,3.90
2019-05-15T06:11:38.819Z,3.55
2019-05-15T06:14:08.746Z,3.52
2019-05-15T06:16:38.750Z,3.00
2019-05-15T06:19:08.487Z,3.40
2019-05-15T06:21:53.394Z,3.30
2019-05-15T06:24:13.186Z,3.50
2019-05-15T06:26:40.398Z,2.70
2019-05-15T06:29:09.825Z,2.80
2019-05-15T06:31:39.261Z,2.95
2019-05-15T06:34:08.731Z,2.98
2019-05-15T06:36:39.255Z,2.98
2019-05-15T06:39:09.240Z,3.12
2019-05-15T06:41:39.177Z,3.58
2019-05-15T06:44:08.752Z,3.90
2019-05-15T06:46:39.267Z,4.05
2019-05-15T06:49:08.970Z,2.90
2019-05-15T06:51:38.414Z,3.02
2019-05-15T06:54:08.802Z,3.27
2019-05-15T06:56:39.092Z,2.55
2019-05-15T06:59:08.916Z,3.35
2019-05-15T07:01:38.761Z,2.70
2019-05-15T07:04:08.571Z,2.52
2019-05-15T07:06:38.284Z,2.08
2019-05-15T07:09:09.494Z,2.42
2019-05-15T07:11:39.112Z,2.15
2019-05-15T07:14:08.958Z,2.40
2019-05-15T07:16:39.171Z,2.30
2019-05-15T07:19:08.690Z,1.80
2019-05-15T07:21:38.845Z,2.20
2019-05-15T07:24:09.168Z,2.30
2019-05-15T07:26:39.314Z,2.02
2019-05-15T07:29:08.966Z,2.60
2019-05-15T07:31:38.631Z,1.95
2019-05-15T07:34:08.522Z,1.80
2019-05-15T07:36:39.025Z,1.90
2019-05-15T07:39:09.316Z,2.02
2019-05-15T07:41:39.127Z,1.80
2019-05-15T07:44:08.928Z,1.72
2019-05-15T07:46:38.466Z,1.87
2019-05-15T07:49:09.072Z,1.65
2019-05-15T07:51:38.893Z,1.50
2019-05-15T07:54:09.144Z,1.37
2019-05-15T07:56:38.892Z,1.50
2019-05-15T07:59:08.326Z,1.67
2019-05-15T08:01:38.625Z,1.42
2019-05-15T08:04:25.126Z,1.70
2019-05-15T08:06:39.506Z,1.57
2019-05-15T08:09:09.105Z,1.62
2019-05-15T08:11:39.249Z,1.55
2019-05-15T08:14:09.163Z,1.57
2019-05-15T08:16:39.603Z,2.42
2019-05-15T08:19:09.224Z,1.80
2019-05-15T08:21:38.785Z,1.70
2019-05-15T08:24:08.653Z,1.40
2019-05-15T08:26:42.330Z,1.35
2019-05-15T08:29:09.424Z,1.15
2019-05-15T08:31:39.138Z,1.40
2019-05-15T08:34:15.882Z,1.50
2019-05-15T08:36:39.906Z,1.45
2019-05-15T08:39:09.364Z,1.80
2019-05-15T08:41:39.311Z,1.20
2019-05-15T08:44:10.373Z,1.17
2019-05-15T08:46:39.808Z,1.07
2019-05-15T08:49:09.354Z,1.10
2019-05-15T08:51:38.797Z,1.20
2019-05-15T08:54:08.658Z,1.10
2019-05-15T08:56:39.384Z,1.37
2019-05-15T08:59:09.038Z,1.37
2019-05-15T09:01:38.500Z,1.35
2019-05-15T09:04:08.906Z,1.30
2019-05-15T09:06:41.457Z,1.52
2019-05-15T09:09:09.894Z,1.90
2019-05-15T09:11:39.577Z,1.82
2019-05-15T09:14:09.305Z,2.10
2019-05-15T09:16:38.954Z,1.47
2019-05-15T09:19:08.564Z,1.87
2019-05-15T09:21:38.823Z,1.80
2019-05-15T09:24:09.453Z,3.17
2019-05-15T09:26:40.444Z,1.82
2019-05-15T09:29:10.174Z,5.40
2019-05-15T09:31:39.617Z,2.40
2019-05-15T09:34:09.308Z,2.08
2019-05-15T09:36:42.257Z,2.92
2019-05-15T09:39:13.356Z,2.92
2019-05-15T09:41:41.590Z,2.20
2019-05-15T09:44:11.140Z,2.00
2019-05-15T09:46:40.571Z,2.00
2019-05-15T09:49:10.012Z,1.92
2019-05-15T09:51:39.478Z,2.37
2019-05-15T09:54:08.928Z,2.05
2019-05-15T09:56:38.672Z,2.22
2019-05-15T09:59:09.198Z,1.95
2019-05-15T10:01:39.607Z,2.37
2019-05-15T10:04:09.112Z,2.25
2019-05-15T10:06:39.125Z,1.95
2019-05-15T10:09:09.232Z,2.10
2019-05-15T10:11:38.879Z,2.47
2019-05-15T10:14:09.859Z,2.05
2019-05-15T10:16:39.413Z,1.92
2019-05-15T10:19:09.083Z,2.30
2019-05-15T10:21:40.086Z,2.00
2019-05-15T10:24:10.039Z,2.70
2019-05-15T10:26:39.670Z,2.00
2019-05-15T10:29:09.385Z,1.85
2019-05-15T10:31:39.146Z,1.82
2019-05-15T10:34:09.244Z,2.20
2019-05-15T10:36:38.909Z,2.00
2019-05-15T10:39:08.687Z,1.85
2019-05-15T10:41:38.837Z,2.15
2019-05-15T10:44:09.301Z,2.00
2019-05-15T10:46:38.975Z,2.20
2019-05-15T10:49:08.827Z,2.30
2019-05-15T10:51:39.536Z,2.37
2019-05-15T10:54:09.469Z,2.40
2019-05-15T10:56:38.978Z,2.42
2019-05-15T10:59:08.645Z,2.20
2019-05-15T11:01:38.762Z,2.05
2019-05-15T11:04:09.389Z,2.40
2019-05-15T11:06:39.020Z,2.27
2019-05-15T11:09:08.763Z,2.40
2019-05-15T11:11:38.285Z,3.05
2019-05-15T11:14:09.326Z,2.20
2019-05-15T11:16:39.234Z,2.12
2019-05-15T11:19:08.836Z,2.37
2019-05-15T11:21:38.561Z,2.52
2019-05-15T11:24:08.781Z,2.60
2019-05-15T11:26:39.116Z,2.70
2019-05-15T11:29:09.733Z,2.80
2019-05-15T11:31:39.547Z,3.00
2019-05-15T11:34:09.471Z,2.65
2019-05-15T11:36:39.027Z,2.80
2019-05-15T11:39:09.120Z,3.08
2019-05-15T11:41:38.828Z,2.62
2019-05-15T11:44:08.518Z,3.58
2019-05-15T11:46:39.028Z,3.08
2019-05-15T11:49:09.496Z,2.87
2019-05-15T11:51:39.098Z,3.15
2019-05-15T11:54:08.626Z,2.87
2019-05-15T11:56:39.171Z,3.20
2019-05-15T11:59:08.895Z,2.50
2019-05-15T12:01:38.464Z,2.58
2019-05-15T12:04:10.258Z,2.60
2019-05-15T12:06:39.693Z,2.72
2019-05-15T12:09:09.514Z,2.95
2019-05-15T12:11:41.153Z,2.60
2019-05-15T12:14:10.291Z,2.77
2019-05-15T12:16:40.179Z,2.40
2019-05-15T12:19:15.215Z,2.60
2019-05-15T12:21:41.333Z,2.50
2019-05-15T12:24:10.748Z,2.70
2019-05-15T12:26:40.203Z,2.35
2019-05-15T12:29:10.159Z,2.70
2019-05-15T12:31:39.854Z,2.80
2019-05-15T12:34:09.355Z,2.20
2019-05-15T12:36:52.116Z,2.40
2019-05-15T12:39:13.527Z,2.75
2019-05-15T13:01:50.723Z,2.10
2019-05-15T13:04:20.173Z,2.20
2019-05-15T13:07:11.719Z,2.25
2019-05-15T13:09:21.248Z,1.90
2019-05-15T13:11:50.699Z,2.67
2019-05-15T13:14:20.201Z,2.42
2019-05-15T13:16:49.823Z,2.60
2019-05-15T13:19:19.290Z,2.45
2019-05-15T13:21:51.406Z,2.40
2019-05-15T13:24:19.941Z,2.55
2019-05-15T13:26:49.384Z,2.77
2019-05-15T13:29:18.850Z,3.00
2019-05-15T13:31:48.280Z,2.87
2019-05-15T13:34:19.715Z,2.83
2019-05-15T13:36:48.937Z,2.90
2019-05-15T13:39:18.605Z,2.95
2019-05-15T13:41:48.478Z,2.75
2019-05-15T13:44:18.685Z,2.92
2019-05-15T13:46:48.344Z,3.10
2019-05-15T13:49:18.719Z,3.05
2019-05-15T13:51:48.891Z,3.60
2019-05-15T13:54:18.867Z,2.85
2019-05-15T13:56:48.769Z,3.02
2019-05-15T13:59:18.497Z,3.08
2019-05-15T14:01:48.619Z,2.90
2019-05-15T14:04:18.545Z,1.95
2019-05-15T14:06:48.714Z,2.42
2019-05-15T14:09:18.413Z,2.55
2019-05-15T14:11:49.425Z,2.50
2019-05-15T14:14:19.204Z,2.52
2019-05-15T14:16:49.228Z,2.37
2019-05-15T14:19:18.779Z,2.60
2019-05-15T14:21:49.035Z,2.70
2019-05-15T14:24:18.657Z,2.20
2019-05-15T14:26:48.627Z,2.50
2019-05-15T14:29:18.916Z,1.98
2019-05-15T14:31:48.997Z,2.42
2019-05-15T14:34:18.730Z,2.37
2019-05-15T14:36:48.514Z,2.00
2019-05-15T14:39:20.814Z,2.30
2019-05-15T14:41:49.342Z,2.35
2019-05-15T14:44:21.757Z,2.70
2019-05-15T14:46:50.838Z,2.40
2019-05-15T14:49:20.500Z,2.52
2019-05-15T14:52:04.235Z,2.40
2019-05-15T14:54:21.132Z,2.47
2019-05-15T14:56:50.561Z,2.60
2019-05-15T14:59:20.015Z,2.70
2019-05-15T15:01:49.460Z,2.83
2019-05-15T15:04:19.201Z,3.00
2019-05-15T15:06:48.853Z,2.50
2019-05-15T15:09:18.922Z,2.55
2019-05-15T15:11:48.490Z,2.50
2019-05-15T15:14:18.109Z,2.72
2019-05-15T15:16:48.917Z,2.67
2019-05-15T15:19:18.710Z,3.20
2019-05-15T15:21:48.775Z,4.05
2019-05-15T15:24:18.879Z,3.90
2019-05-15T15:26:49.295Z,3.45
2019-05-15T15:29:19.180Z,2.72
2019-05-15T15:31:49.461Z,3.33
2019-05-15T15:34:19.772Z,3.47
2019-05-15T15:36:49.353Z,2.65
2019-05-15T15:39:18.809Z,3.30
2019-05-15T15:41:48.675Z,3.50
2019-05-15T15:44:18.285Z,3.83
2019-05-15T15:46:48.591Z,3.45
2019-05-15T15:49:18.165Z,3.35
2019-05-15T15:51:48.776Z,3.70
2019-05-15T15:54:18.871Z,3.77
2019-05-15T15:56:48.723Z,3.70
2019-05-15T15:59:18.345Z,3.85
2019-05-15T16:01:49.334Z,3.80
2019-05-15T16:04:19.219Z,3.50
2019-05-15T16:06:48.762Z,3.00
2019-05-15T16:09:18.826Z,3.30
2019-05-15T16:11:49.336Z,3.80
2019-05-15T16:14:18.996Z,3.70
2019-05-15T16:16:48.757Z,4.70
2019-05-15T16:19:18.895Z,4.17
2019-05-15T16:21:49.189Z,4.37
2019-05-15T16:24:21.612Z,4.25
2019-05-15T16:26:50.012Z,4.03
2019-05-15T16:29:19.455Z,3.72
2019-05-15T16:31:49.338Z,4.05
2019-05-15T16:34:18.988Z,3.90
2019-05-15T16:36:49.038Z,3.40
2019-05-15T16:39:18.507Z,4.35
2019-05-15T16:41:48.980Z,3.98
2019-05-15T16:44:18.673Z,3.67
2019-05-15T16:46:48.326Z,3.87
2019-05-15T16:49:19.163Z,3.05
2019-05-15T16:51:49.339Z,4.08
2019-05-15T16:54:18.827Z,3.60
2019-05-15T16:56:49.034Z,3.47
2019-05-15T16:59:18.791Z,4.05
2019-05-15T17:01:48.997Z,4.15
2019-05-15T17:04:18.544Z,4.00
2019-05-15T17:06:49.382Z,3.90
2019-05-15T17:09:21.738Z,4.05
2019-05-15T17:11:50.121Z,4.25
2019-05-15T17:14:20.129Z,4.17
2019-05-15T17:16:49.591Z,4.55
2019-05-15T17:19:19.048Z,4.08
2019-05-15T17:21:48.520Z,4.80
2019-05-15T17:24:17.969Z,4.83
2019-05-15T17:26:48.492Z,4.15
2019-05-15T17:29:18.654Z,4.00
2019-05-15T17:31:48.817Z,4.25
2019-05-15T17:34:18.505Z,4.25
2019-05-15T17:36:48.907Z,3.92
2019-05-15T17:39:27.045Z,4.25
2019-05-15T17:41:49.677Z,3.20
2019-05-15T17:44:19.151Z,2.72
2019-05-15T17:46:51.245Z,2.72
2019-05-15T17:49:20.890Z,2.92
2019-05-15T17:51:50.314Z,3.42
2019-05-15T17:54:19.752Z,3.30
2019-05-15T17:56:49.219Z,3.12
2019-05-15T17:59:18.750Z,3.17
2019-05-15T18:01:49.176Z,3.92
2019-05-15T18:04:19.165Z,4.00
2019-05-15T18:06:48.655Z,3.70
2019-05-15T18:09:18.839Z,3.77
2019-05-15T18:11:48.420Z,4.17
2019-05-15T18:14:17.889Z,4.00
2019-05-15T18:16:48.774Z,3.72
2019-05-15T18:19:18.890Z,3.92
2019-05-15T18:21:49.787Z,4.17
2019-05-15T18:24:19.497Z,3.75
2019-05-15T18:26:49.022Z,2.77
2019-05-15T18:29:18.453Z,3.47
2019-05-15T18:31:48.165Z,3.85
2019-05-15T18:34:18.780Z,3.52
2019-05-15T18:36:48.592Z,3.33
2019-05-15T18:39:18.101Z,3.98
2019-05-15T18:41:48.494Z,2.95
2019-05-15T18:44:18.885Z,3.37
2019-05-15T18:46:48.831Z,2.83
2019-05-15T18:49:18.386Z,3.12
2019-05-15T18:51:48.043Z,3.05
2019-05-15T18:54:18.979Z,2.90
2019-05-15T18:56:49.193Z,3.67
2019-05-15T18:59:18.766Z,2.70
2019-05-15T19:01:48.418Z,3.10
2019-05-15T19:04:18.315Z,2.50
2019-05-15T19:06:47.892Z,3.10
2019-05-15T19:09:18.905Z,2.33
2019-05-15T19:11:48.937Z,4.30
2019-05-15T19:14:19.256Z,2.87
2019-05-15T19:16:49.030Z,2.60
2019-05-15T19:19:18.654Z,2.80
2019-05-15T19:21:48.903Z,2.87
2019-05-15T19:24:18.712Z,2.77
2019-05-15T19:26:48.278Z,3.12
2019-05-15T19:29:18.046Z,2.80
2019-05-15T19:31:47.656Z,2.70
2019-05-15T19:34:18.993Z,2.47
2019-05-15T19:36:48.759Z,2.87
2019-05-15T19:39:18.664Z,2.80
2019-05-15T19:41:48.199Z,3.22
2019-05-15T19:44:18.024Z,2.42
2019-05-15T19:46:48.017Z,2.90
2019-05-15T19:49:18.031Z,2.77
2019-05-15T19:51:50.046Z,2.50
2019-05-15T19:54:18.657Z,2.62
2019-05-15T19:56:48.297Z,3.08
2019-05-15T19:59:22.484Z,2.33
2019-05-15T20:01:48.949Z,2.70
2019-05-15T20:04:18.668Z,3.10
2019-05-15T20:06:48.131Z,2.72
2019-05-15T20:09:18.283Z,2.55
2019-05-15T20:11:48.056Z,3.10
2019-05-15T20:14:18.314Z,3.25
2019-05-15T20:16:48.123Z,3.08
2019-05-15T20:19:18.229Z,2.87
2019-05-15T20:21:47.747Z,3.12
2019-05-15T20:24:18.234Z,3.17
2019-05-15T20:26:48.632Z,3.30
2019-05-15T20:29:18.308Z,2.72
2019-05-15T20:31:48.388Z,3.20
2019-05-15T20:34:17.972Z,3.25
2019-05-15T20:36:48.796Z,3.30
2019-05-15T20:39:18.436Z,3.12
2019-05-15T20:41:48.743Z,3.87
2019-05-15T20:44:18.401Z,3.35
2019-05-15T20:46:50.626Z,3.98
2019-05-15T20:49:19.007Z,3.90
2019-05-15T20:51:49.030Z,3.95
2019-05-15T20:54:18.556Z,3.70
2019-05-15T20:56:48.961Z,3.90
2019-05-15T20:59:18.570Z,3.95
2019-05-15T21:01:48.351Z,3.77
2019-05-15T21:04:23.828Z,3.50
2019-05-15T21:06:53.488Z,4.10
2019-05-15T21:09:22.957Z,3.90
2019-05-15T21:11:52.403Z,4.10
2019-05-15T21:14:21.963Z,4.28
2019-05-15T21:16:51.396Z,4.60
2019-05-15T21:19:20.863Z,4.08
2019-05-15T21:21:50.319Z,4.50
2019-05-15T21:24:19.771Z,4.37
2019-05-15T21:26:49.226Z,4.35
2019-05-15T21:29:18.714Z,4.70
2019-05-15T21:31:49.106Z,4.65
2019-05-15T21:34:33.352Z,4.55
2019-05-15T21:36:52.131Z,3.27
2019-05-15T21:39:20.996Z,4.50
2019-05-15T21:41:50.430Z,4.42
2019-05-15T21:44:19.892Z,4.83
2019-05-15T21:46:50.158Z,5.20
2019-05-15T21:49:19.667Z,5.15
2019-05-15T21:51:49.108Z,4.58
2019-05-15T21:54:18.540Z,4.87
2019-05-15T21:56:50.535Z,4.72
2019-05-15T21:59:19.190Z,4.80
2019-05-15T22:01:48.644Z,4.83
2019-05-15T22:04:18.074Z,4.55
2019-05-15T22:06:49.104Z,4.87
2019-05-15T22:09:20.495Z,4.55
2019-05-15T22:11:50.337Z,4.65
2019-05-15T22:14:19.830Z,4.87
2019-05-15T22:16:49.304Z,4.80
2019-05-15T22:19:20.793Z,4.30
2019-05-15T22:21:50.212Z,5.08
2019-05-15T22:24:19.681Z,5.03
2019-05-15T22:26:49.295Z,4.85
2019-05-15T22:29:20.845Z,4.80
2019-05-15T22:31:53.345Z,4.70
2019-05-15T22:34:22.800Z,4.90
2019-05-15T22:36:52.232Z,4.95
2019-05-15T22:39:21.737Z,5.08
2019-05-15T22:41:51.192Z,5.15
2019-05-15T22:44:20.665Z,5.67
2019-05-15T22:46:50.114Z,5.40
2019-05-15T22:49:19.639Z,5.58
2019-05-15T22:51:49.067Z,5.47
2019-05-15T22:54:20.462Z,6.03
2019-05-15T22:56:49.735Z,5.75
2019-05-15T22:59:19.472Z,5.70
2019-05-15T23:01:49.399Z,5.22
2019-05-15T23:04:18.876Z,5.17
2019-05-15T23:06:48.330Z,5.08
2019-05-15T23:09:17.756Z,5.55
2019-05-15T23:11:48.486Z,5.53
2019-05-15T23:14:18.180Z,6.17
2019-05-15T23:16:48.268Z,6.42
2019-05-15T23:19:18.770Z,6.00
2019-05-15T23:21:48.747Z,6.25
2019-05-15T23:24:18.873Z,6.47
2019-05-15T23:26:48.504Z,5.90
2019-05-15T23:29:17.960Z,6.10
2019-05-15T23:31:47.386Z,5.42
2019-05-15T23:34:18.683Z,6.15
2019-05-15T23:36:48.394Z,6.53
2019-05-15T23:39:18.238Z,5.72
2019-05-15T23:41:47.812Z,6.12
2019-05-15T23:44:18.405Z,5.67
2019-05-15T23:46:48.794Z,5.62
2019-05-15T23:49:19.867Z,5.90
2019-05-15T23:51:49.458Z,5.40
2019-05-15T23:54:18.908Z,5.62
2019-05-15T23:56:48.346Z,5.87
2019-05-15T23:59:18.763Z,5.50
